Time;durP1;ratioP1;P1;durP2;ratioP2;P2;SDS_P1;SDS_P2;PMS_P1;PMS_P2;Temp;Humidity;BMP_temperature;BMP_pressure;BME280_temperature;BME280_humidity;BME280_pressure;Samples;Min_cycle;Max_cycle;Signal;HPM_P1;HPM_P2
2024/02/08 00:00:58;;;;;;;20.80;6.78;;;1.80;99.90;;;;;;5135640;27;20365;-62
2024/02/08 00:03:24;;;;;;;13.90;6.03;;;1.80;99.90;;;;;;5136070;27;20047;-63
2024/02/08 00:05:50;;;;;;;17.65;7.10;;;1.80;99.90;;;;;;5136018;27;20485;-62
2024/02/08 00:08:15;;;;;;;19.65;6.72;;;1.80;99.90;;;;;;5142469;27;20041;-62
2024/02/08 00:10:41;;;;;;;17.13;6.65;;;1.90;99.90;;;;;;5145438;27;20042;-63
2024/02/08 00:13:07;;;;;;;17.17;7.57;;;1.90;99.90;;;;;;5136486;27;20478;-62
2024/02/08 00:15:34;;;;;;;16.75;6.82;;;1.70;99.90;;;;;;5130149;27;20035;-64
2024/02/08 00:18:00;;;;;;;17.83;6.60;;;1.70;99.90;;;;;;5139406;27;20065;-62
2024/02/08 00:20:26;;;;;;;15.90;6.05;;;1.60;99.90;;;;;;5138418;27;20550;-62
2024/02/08 00:22:54;;;;;;;15.80;6.68;;;1.40;99.90;;;;;;5142793;27;20039;-62
2024/02/08 00:25:23;;;;;;;14.68;6.28;;;1.40;99.90;;;;;;5132767;27;20534;-62
2024/02/08 00:27:49;;;;;;;16.27;6.25;;;1.40;99.90;;;;;;5136547;27;20039;-63
2024/02/08 00:30:15;;;;;;;17.80;7.75;;;1.40;99.90;;;;;;5139581;27;20038;-62
2024/02/08 00:32:46;;;;;;;21.63;7.38;;;1.40;99.90;;;;;;5129634;27;20085;-63
2024/02/08 00:35:17;;;;;;;25.58;6.70;;;1.30;99.90;;;;;;5132633;27;20037;-62
2024/02/08 00:37:47;;;;;;;17.80;7.13;;;1.30;99.90;;;;;;5138561;27;20601;-62
2024/02/08 00:40:17;;;;;;;14.45;7.30;;;1.40;99.90;;;;;;5133341;27;20046;-62
2024/02/08 00:42:45;;;;;;;21.42;9.25;;;1.50;99.90;;;;;;5135935;27;20555;-63
2024/02/08 00:45:12;;;;;;;17.77;8.57;;;1.50;99.90;;;;;;5122163;27;20067;-62
2024/02/08 00:47:38;;;;;;;17.13;7.45;;;1.50;99.90;;;;;;5136109;27;20506;-62
2024/02/08 00:50:05;;;;;;;14.65;6.55;;;1.60;99.90;;;;;;5120066;27;20051;-62
2024/02/08 00:52:33;;;;;;;18.65;6.00;;;1.60;99.90;;;;;;5139978;27;20042;-62
2024/02/08 00:55:00;;;;;;;15.50;6.03;;;1.60;99.90;;;;;;5134884;27;20066;-62
2024/02/08 00:57:29;;;;;;;13.35;5.18;;;1.50;99.90;;;;;;5138097;27;20038;-63
2024/02/08 00:59:55;;;;;;;15.02;5.78;;;1.50;99.90;;;;;;5132116;27;20038;-62
2024/02/08 01:02:21;;;;;;;12.85;5.80;;;1.50;99.90;;;;;;5115611;27;20612;-62
2024/02/08 01:04:48;;;;;;;13.02;5.57;;;1.50;99.90;;;;;;5141437;27;20047;-62
2024/02/08 01:07:15;;;;;;;17.30;5.68;;;1.40;99.90;;;;;;5135098;27;20589;-62
2024/02/08 01:09:40;;;;;;;9.73;5.22;;;1.50;99.90;;;;;;5131608;27;20219;-62
2024/02/08 01:12:06;;;;;;;12.63;6.22;;;1.40;99.90;;;;;;5138730;27;20130;-62
2024/02/08 01:14:32;;;;;;;10.50;4.85;;;1.50;99.90;;;;;;5121223;27;20840;-62
2024/02/08 01:16:58;;;;;;;13.95;5.85;;;1.40;99.90;;;;;;5140998;27;20046;-62
2024/02/08 01:19:25;;;;;;;13.13;5.70;;;1.30;99.90;;;;;;5136634;27;20035;-62
2024/02/08 01:21:56;;;;;;;12.30;5.10;;;1.20;99.90;;;;;;5140314;27;20414;-62
2024/02/08 01:24:23;;;;;;;16.40;5.15;;;1.20;99.90;;;;;;5146541;27;20505;-62
2024/02/08 01:26:49;;;;;;;19.45;5.53;;;1.10;99.90;;;;;;5141795;27;20445;-62
2024/02/08 01:29:16;;;;;;;11.15;5.00;;;1.10;99.90;;;;;;5144483;27;20039;-62
2024/02/08 01:31:43;;;;;;;20.35;5.15;;;1.20;99.90;;;;;;5141698;27;20046;-62
2024/02/08 01:34:09;;;;;;;12.32;5.10;;;1.20;99.90;;;;;;5147135;27;20038;-62
2024/02/08 01:36:37;;;;;;;9.00;4.50;;;1.20;99.90;;;;;;5132276;27;20047;-62
2024/02/08 01:39:22;;;;;;;16.33;4.85;;;1.20;99.90;;;;;;5123465;27;20099;-62
2024/02/08 01:41:49;;;;;;;13.15;4.75;;;1.30;99.90;;;;;;5136574;27;20429;-62
2024/02/08 01:44:16;;;;;;;14.77;4.97;;;1.40;99.90;;;;;;5147969;27;20091;-62
2024/02/08 01:46:42;;;;;;;13.18;4.20;;;1.40;99.90;;;;;;5144472;27;20047;-62
2024/02/08 01:49:12;;;;;;;17.15;4.75;;;1.40;99.90;;;;;;5143229;27;20043;-62
2024/02/08 01:51:39;;;;;;;17.25;4.40;;;1.50;99.90;;;;;;5149440;27;20034;-62
2024/02/08 01:54:08;;;;;;;11.40;4.35;;;1.50;99.90;;;;;;5139683;27;20039;-62
2024/02/08 01:56:36;;;;;;;14.43;4.22;;;1.50;99.90;;;;;;5147678;27;20043;-62
2024/02/08 01:59:03;;;;;;;15.93;5.00;;;1.40;99.90;;;;;;5123827;27;20042;-62
2024/02/08 02:01:29;;;;;;;20.25;5.20;;;1.30;99.90;;;;;;5127770;27;20375;-62
2024/02/08 02:03:55;;;;;;;18.80;4.70;;;1.30;99.90;;;;;;5145798;27;20094;-63
2024/02/08 02:06:21;;;;;;;11.82;4.40;;;1.10;99.90;;;;;;5140925;27;20045;-62
2024/02/08 02:08:57;;;;;;;14.77;5.88;;;1.20;99.90;;;;;;5142465;27;20042;-62
2024/02/08 02:11:35;;;;;;;13.30;4.22;;;1.20;99.90;;;;;;5122257;27;20066;-62
2024/02/08 02:14:04;;;;;;;11.02;4.45;;;1.30;99.90;;;;;;5137520;27;20043;-62
2024/02/08 02:16:30;;;;;;;13.00;5.22;;;1.40;99.90;;;;;;5146592;27;20058;-62
2024/02/08 02:18:56;;;;;;;18.98;5.35;;;1.40;99.90;;;;;;5140173;27;20031;-62
2024/02/08 02:21:22;;;;;;;14.15;4.63;;;1.40;99.90;;;;;;5141215;27;20510;-63
2024/02/08 02:23:52;;;;;;;10.07;3.95;;;1.50;99.90;;;;;;5148583;27;20051;-62
2024/02/08 02:26:22;;;;;;;12.48;4.85;;;1.50;99.90;;;;;;5138199;27;20118;-62
2024/02/08 02:28:48;;;;;;;17.60;5.05;;;1.40;99.90;;;;;;5142581;27;20051;-62
2024/02/08 02:31:15;;;;;;;14.85;5.18;;;1.30;99.90;;;;;;5144407;27;20403;-62
2024/02/08 02:33:42;;;;;;;14.90;5.32;;;1.10;99.90;;;;;;5129339;27;20135;-62
2024/02/08 02:36:08;;;;;;;20.15;5.13;;;1.00;99.90;;;;;;5129486;27;20321;-62
2024/02/08 02:38:37;;;;;;;17.27;5.53;;;0.90;99.90;;;;;;5139187;27;20350;-62
2024/02/08 02:41:06;;;;;;;19.20;5.13;;;0.90;99.90;;;;;;5136142;27;20039;-62
2024/02/08 02:43:34;;;;;;;;;;;0.80;99.90;;;;;;5137437;27;20046;-63
2024/02/08 02:46:00;;;;;;;15.60;5.10;;;1.00;99.90;;;;;;5134423;27;20409;-62
2024/02/08 02:48:25;;;;;;;9.05;3.88;;;1.10;99.90;;;;;;5139654;27;20074;-62
2024/02/08 02:50:51;;;;;;;14.15;4.65;;;1.00;99.90;;;;;;5127616;27;20042;-62
2024/02/08 02:53:18;;;;;;;7.57;4.07;;;1.10;99.90;;;;;;5135849;27;20046;-62
2024/02/08 02:55:44;;;;;;;15.95;5.35;;;1.10;99.90;;;;;;5141441;27;20049;-62
2024/02/08 02:58:12;;;;;;;15.95;4.50;;;1.10;99.90;;;;;;5139692;27;20031;-65
2024/02/08 03:00:38;;;;;;;21.85;4.43;;;1.20;99.90;;;;;;5138810;27;20073;-62
2024/02/08 03:03:11;;;;;;;11.82;4.13;;;1.10;99.90;;;;;;5139724;27;20102;-62
2024/02/08 03:05:46;;;;;;;14.85;4.85;;;1.00;99.90;;;;;;5139918;27;20041;-62
2024/02/08 03:08:12;;;;;;;14.68;5.35;;;1.00;99.90;;;;;;5143917;27;20440;-61
2024/02/08 03:10:37;;;;;;;14.82;3.75;;;0.90;99.90;;;;;;5134470;27;20062;-62
2024/02/08 03:13:04;;;;;;;7.53;3.35;;;1.00;99.90;;;;;;5144494;27;20092;-62
2024/02/08 03:15:29;;;;;;;12.50;4.13;;;1.00;99.90;;;;;;5141920;27;20117;-62
2024/02/08 03:17:55;;;;;;;16.45;4.30;;;1.20;99.90;;;;;;5132485;27;20130;-62
2024/02/08 03:20:29;;;;;;;11.00;3.83;;;1.20;99.90;;;;;;5141779;27;20030;-62
2024/02/08 03:22:59;;;;;;;15.68;4.40;;;1.20;99.90;;;;;;5139275;27;20042;-62
2024/02/08 03:25:30;;;;;;;15.30;3.63;;;1.30;99.90;;;;;;5142042;27;20130;-62
2024/02/08 03:27:56;;;;;;;16.20;4.43;;;1.30;99.90;;;;;;5142640;27;20049;-62
2024/02/08 03:30:22;;;;;;;11.55;3.75;;;1.30;99.90;;;;;;5140044;27;20043;-62
2024/02/08 03:32:55;;;;;;;10.48;4.18;;;1.30;99.90;;;;;;5143379;27;20494;-62
2024/02/08 03:35:27;;;;;;;14.55;3.70;;;1.40;99.90;;;;;;5119168;27;20038;-62
2024/02/08 03:38:00;;;;;;;17.25;4.75;;;1.40;99.90;;;;;;5138190;27;20487;-62
2024/02/08 03:40:29;;;;;;;18.77;4.57;;;1.50;99.90;;;;;;5137549;27;20054;-63
2024/02/08 03:42:55;;;;;;;17.08;4.72;;;1.50;99.90;;;;;;5137926;27;20582;-62
2024/02/08 03:45:23;;;;;;;11.80;4.20;;;1.50;99.90;;;;;;5121990;27;20442;-63
2024/02/08 03:47:50;;;;;;;16.10;4.20;;;1.30;99.90;;;;;;5136660;27;20508;-62
2024/02/08 03:50:16;;;;;;;16.08;3.95;;;1.20;99.90;;;;;;5137556;27;20070;-65
2024/02/08 03:52:42;;;;;;;11.68;4.35;;;1.20;99.90;;;;;;5135889;27;20113;-62
2024/02/08 03:55:09;;;;;;;9.10;4.07;;;1.20;99.90;;;;;;5133079;27;20584;-62
2024/02/08 03:57:36;;;;;;;11.88;5.00;;;1.30;99.90;;;;;;5141048;27;20099;-62
2024/02/08 04:00:04;;;;;;;11.82;3.88;;;1.30;99.90;;;;;;5140372;27;20395;-62
2024/02/08 04:02:34;;;;;;;12.10;4.88;;;1.30;99.90;;;;;;5144205;27;20528;-62
2024/02/08 04:05:06;;;;;;;11.52;3.80;;;1.30;99.90;;;;;;5130365;27;20039;-62
2024/02/08 04:10:29;;;;;;;11.50;4.13;;;1.10;99.90;;;;;;5143396;27;20701;-62
2024/02/08 04:54:09;;;;;;;15.52;4.97;;;0.90;99.90;;;;;;5131887;27;20039;-62
2024/02/08 04:56:35;;;;;;;10.77;4.07;;;1.00;99.90;;;;;;5139426;27;20741;-62
2024/02/08 04:59:05;;;;;;;13.63;4.88;;;1.00;99.90;;;;;;5135746;27;20513;-62
2024/02/08 05:01:36;;;;;;;15.23;3.75;;;1.10;99.90;;;;;;5132500;27;20730;-62
2024/02/08 05:04:03;;;;;;;23.30;4.93;;;1.00;99.90;;;;;;5139355;27;20703;-62
2024/02/08 05:06:29;;;;;;;12.25;3.88;;;0.80;99.90;;;;;;5140362;27;20039;-62
2024/02/08 05:08:59;;;;;;;14.15;4.70;;;0.90;99.90;;;;;;5136238;27;20458;-62
2024/02/08 05:11:28;;;;;;;12.27;4.13;;;0.80;99.90;;;;;;5137196;27;20168;-62
2024/02/08 05:14:00;;;;;;;13.40;4.22;;;0.80;99.90;;;;;;5119838;27;20064;-62
2024/02/08 05:16:27;;;;;;;10.82;4.40;;;0.80;99.90;;;;;;5138366;27;20049;-62
2024/02/08 05:18:53;;;;;;;10.73;4.63;;;0.80;99.90;;;;;;5131441;27;20070;-62
2024/02/08 05:21:19;;;;;;;15.55;4.78;;;0.80;99.90;;;;;;5137007;27;20034;-61
2024/02/08 05:23:47;;;;;;;16.83;4.95;;;0.70;99.90;;;;;;5143454;27;20034;-62
2024/02/08 05:26:21;;;;;;;12.93;4.90;;;0.70;99.90;;;;;;5143632;27;20478;-62
2024/02/08 05:28:48;;;;;;;11.57;4.75;;;0.80;99.90;;;;;;5140156;27;20198;-63
2024/02/08 05:31:18;;;;;;;15.52;4.90;;;0.90;99.90;;;;;;5142542;27;20050;-62
2024/02/08 05:33:44;;;;;;;14.95;4.60;;;0.90;99.90;;;;;;5141181;27;20042;-62
2024/02/08 05:36:11;;;;;;;11.20;4.88;;;1.00;99.90;;;;;;5141048;27;20612;-63
2024/02/08 05:38:40;;;;;;;15.23;5.63;;;1.10;99.90;;;;;;5133749;27;20515;-62
2024/02/08 05:41:08;;;;;;;14.98;5.30;;;1.00;99.90;;;;;;5138018;27;20050;-62
2024/02/08 05:43:47;;;;;;;27.88;8.98;;;1.10;99.90;;;;;;5143286;27;20076;-62
2024/02/08 05:46:29;;;;;;;29.25;9.55;;;1.00;99.90;;;;;;5141753;27;20053;-62
2024/02/08 05:49:05;;;;;;;23.60;9.32;;;1.20;99.90;;;;;;5137345;27;20058;-62
2024/02/08 05:51:35;;;;;;;21.02;6.75;;;1.30;99.90;;;;;;5118431;27;20046;-62
2024/02/08 05:54:06;;;;;;;20.15;8.45;;;1.50;99.90;;;;;;5129976;27;20114;-62
2024/02/08 05:56:39;;;;;;;21.52;7.38;;;1.50;99.90;;;;;;5133415;27;20034;-62
2024/02/08 05:59:08;;;;;;;22.35;8.23;;;1.60;99.90;;;;;;5134325;27;20768;-63
2024/02/08 06:01:44;;;;;;;17.38;5.97;;;1.50;99.90;;;;;;5129765;27;20588;-63
2024/02/08 06:04:14;;;;;;;18.50;6.38;;;1.50;99.90;;;;;;5139682;27;20563;-63
2024/02/08 06:06:52;;;;;;;25.77;6.15;;;1.50;99.90;;;;;;5134058;27;20146;-63
2024/02/08 06:12:16;;;;;;;22.85;7.40;;;1.50;99.90;;;;;;5135014;27;20045;-63
2024/02/08 06:14:43;;;;;;;22.55;6.68;;;1.60;99.90;;;;;;5133219;27;20054;-63
2024/02/08 06:17:09;;;;;;;15.93;4.50;;;1.60;99.90;;;;;;5143487;27;20594;-63
2024/02/08 06:20:00;;;;;;;14.75;4.43;;;1.60;99.90;;;;;;5144238;27;20035;-61
2024/02/08 06:22:25;;;;;;;13.00;5.18;;;1.70;99.90;;;;;;5133788;27;20055;-65
2024/02/08 06:24:54;;;;;;;18.52;6.80;;;1.70;99.90;;;;;;5145523;27;20035;-63
2024/02/08 06:27:25;;;;;;;18.35;6.03;;;1.80;99.90;;;;;;5141428;27;20043;-63
2024/02/08 06:29:52;;;;;;;14.65;5.35;;;1.80;99.90;;;;;;5142893;27;20051;-63
2024/02/08 06:35:11;;;;;;;12.43;4.88;;;1.70;99.90;;;;;;5137634;27;20043;-63
2024/02/08 06:37:46;;;;;;;16.52;4.95;;;1.80;99.90;;;;;;5136339;27;20038;-63
2024/02/08 06:40:37;;;;;;;13.20;4.80;;;1.80;99.90;;;;;;5134290;27;20071;-63
2024/02/08 07:37:55;;;;;;;17.50;5.65;;;2.00;99.90;;;;;;5141600;27;20133;-63
2024/02/08 07:40:25;;;;;;;10.18;5.03;;;2.00;99.90;;;;;;5141559;27;20490;-63
2024/02/08 07:43:16;;;;;;;15.02;4.78;;;2.00;99.90;;;;;;5121890;27;20034;-63
2024/02/08 07:45:54;;;;;;;14.88;4.85;;;2.00;99.90;;;;;;5140729;27;20068;-62
2024/02/08 07:48:39;;;;;;;20.10;5.47;;;2.00;99.90;;;;;;5122621;27;20046;-62
2024/02/08 07:51:05;;;;;;;16.05;5.32;;;2.10;99.90;;;;;;5142937;27;20154;-62
2024/02/08 07:58:51;;;;;;;10.95;4.20;;;2.10;99.90;;;;;;5139736;27;20091;-63
2024/02/08 08:01:20;;;;;;;19.50;5.15;;;2.10;99.90;;;;;;5142724;27;20080;-62
2024/02/08 08:03:49;;;;;;;12.07;4.82;;;2.20;99.90;;;;;;5141225;27;20031;-61
2024/02/08 08:06:15;;;;;;;17.98;5.30;;;2.20;99.90;;;;;;5140866;27;20114;-62
2024/02/08 08:08:57;;;;;;;14.25;4.95;;;2.20;99.90;;;;;;5143092;27;20030;-62
2024/02/08 08:11:31;;;;;;;17.25;6.05;;;2.20;99.90;;;;;;5141274;27;20051;-62
2024/02/08 08:19:09;;;;;;;14.85;6.70;;;2.30;99.90;;;;;;5138905;27;20041;-61
2024/02/08 08:24:27;;;;;;;13.38;5.47;;;2.30;99.90;;;;;;5138527;27;20546;-61
2024/02/08 08:27:06;;;;;;;18.75;5.20;;;2.40;99.90;;;;;;5138818;27;20042;-62
2024/02/08 08:29:42;;;;;;;13.25;5.10;;;2.40;99.90;;;;;;5140286;27;20513;-64
2024/02/08 08:37:44;;;;;;;17.90;5.65;;;2.50;99.90;;;;;;5139292;27;20038;-61
2024/02/08 08:40:37;;;;;;;15.43;6.00;;;2.60;99.90;;;;;;5138893;27;20057;-61
2024/02/08 08:43:10;;;;;;;15.63;6.60;;;2.60;99.90;;;;;;5139501;27;20121;-62
2024/02/08 08:45:41;;;;;;;22.40;6.20;;;2.70;99.90;;;;;;5138933;27;20066;-62
2024/02/08 08:48:07;;;;;;;13.50;5.38;;;2.70;99.90;;;;;;5140846;27;20042;-62
2024/02/08 08:50:33;;;;;;;16.85;5.00;;;2.80;99.90;;;;;;5121131;27;20047;-65
2024/02/08 08:53:19;;;;;;;17.23;5.22;;;2.80;99.90;;;;;;5142689;27;20038;-62
2024/02/08 08:55:50;;;;;;;21.40;4.72;;;2.90;99.90;;;;;;5140963;27;20034;-62
2024/02/08 08:58:22;;;;;;;13.00;4.47;;;3.00;99.90;;;;;;5140553;27;20042;-62
2024/02/08 09:00:58;;;;;;;15.50;4.68;;;3.00;99.90;;;;;;5138435;27;20498;-62
2024/02/08 09:03:28;;;;;;;15.85;4.90;;;3.10;99.90;;;;;;5140615;27;20451;-62
2024/02/08 09:05:57;;;;;;;12.50;4.60;;;3.20;99.90;;;;;;5139473;27;20202;-62
2024/02/08 09:08:41;;;;;;;15.80;5.03;;;3.30;99.90;;;;;;5139418;27;20062;-61
2024/02/08 09:11:12;;;;;;;15.82;4.75;;;3.40;99.90;;;;;;5141002;27;20061;-62
2024/02/08 09:13:42;;;;;;;18.55;4.85;;;3.40;99.90;;;;;;5121173;27;20043;-63
2024/02/08 09:21:31;;;;;;;21.90;5.93;;;3.80;99.90;;;;;;5138976;27;20062;-62
2024/02/08 09:24:07;;;;;;;12.23;4.35;;;3.90;99.90;;;;;;5140560;27;20931;-63
2024/02/08 09:26:52;;;;;;;15.45;4.22;;;3.90;99.90;;;;;;5139421;27;20064;-62
2024/02/08 09:29:23;;;;;;;13.60;4.10;;;4.00;99.90;;;;;;5142281;27;20297;-62
2024/02/08 09:31:57;;;;;;;17.50;6.18;;;4.10;99.90;;;;;;5138215;27;20354;-62
2024/02/08 09:34:36;;;;;;;12.43;5.03;;;4.70;99.90;;;;;;5138168;27;20046;-63
2024/02/08 09:37:08;;;;;;;18.17;4.88;;;4.20;99.90;;;;;;5138634;27;20103;-62
2024/02/08 09:42:29;;;;;;;12.50;4.68;;;4.20;99.90;;;;;;5141463;27;20125;-63
2024/02/08 09:47:54;;;;;;;15.43;4.80;;;4.40;99.90;;;;;;5143545;27;20200;-61
2024/02/08 09:50:36;;;;;;;13.90;4.40;;;4.40;99.90;;;;;;5143323;27;20081;-61
2024/02/08 09:53:27;;;;;;;14.48;4.18;;;4.40;99.90;;;;;;5141235;27;20514;-61
2024/02/08 09:55:55;;;;;;;24.10;5.20;;;4.50;99.90;;;;;;5143332;27;20045;-60
2024/02/08 09:58:33;;;;;;;14.98;4.75;;;4.60;99.90;;;;;;5144156;27;20217;-61
2024/02/08 10:01:21;;;;;;;14.52;4.05;;;4.60;99.90;;;;;;5144364;27;20173;-61
2024/02/08 10:04:04;;;;;;;11.23;4.00;;;4.60;99.90;;;;;;5142463;27;20610;-61
2024/02/08 10:06:39;;;;;;;14.18;4.38;;;4.70;99.90;;;;;;5141258;27;20538;-62
2024/02/08 10:11:58;;;;;;;15.82;4.53;;;4.90;99.90;;;;;;5137999;27;20048;-62
2024/02/08 10:14:32;;;;;;;29.15;5.50;;;5.00;99.90;;;;;;5137164;27;20103;-62
2024/02/08 10:17:14;;;;;;;13.85;3.90;;;5.10;99.90;;;;;;5138289;27;20035;-62
2024/02/08 10:20:32;;;;;;;17.58;4.82;;;5.20;99.90;;;;;;5142132;27;20038;-63
2024/02/08 10:22:53;;;;;;;21.45;4.15;;;5.30;99.90;;;;;;5140975;27;20357;-62
2024/02/08 10:28:08;;;;;;;18.55;4.75;;;5.30;99.90;;;;;;5137049;27;20042;-63
2024/02/08 10:30:38;;;;;;;15.13;4.25;;;5.30;99.90;;;;;;5140204;27;20511;-63
2024/02/08 10:33:04;;;;;;;;;;;5.30;99.90;;;;;;5136480;27;20051;-62
2024/02/08 10:35:39;;;;;;;12.98;3.55;;;5.40;99.90;;;;;;5138544;27;19966;-62
2024/02/08 10:38:30;;;;;;;13.77;3.90;;;5.40;99.90;;;;;;5139344;27;20069;-63
2024/02/08 10:40:59;;;;;;;16.27;4.35;;;5.40;99.90;;;;;;5135915;27;20042;-62
2024/02/08 10:43:25;;;;;;;14.38;3.80;;;5.60;99.90;;;;;;5135398;27;20038;-63
2024/02/08 10:46:02;;;;;;;12.63;3.97;;;5.50;99.90;;;;;;5140413;27;20039;-63
2024/02/08 10:48:30;;;;;;;14.60;4.30;;;5.50;99.90;;;;;;5135690;27;20098;-63
2024/02/08 10:51:03;;;;;;;18.48;4.28;;;5.50;99.90;;;;;;5139552;27;20494;-63
2024/02/08 10:53:45;;;;;;;14.50;3.92;;;5.50;99.90;;;;;;5139334;27;20031;-63
2024/02/08 10:56:16;;;;;;;14.25;3.97;;;5.50;99.90;;;;;;5119772;27;20478;-63
2024/02/08 10:59:09;;;;;;;16.45;3.75;;;5.50;99.90;;;;;;5140930;27;20676;-62
2024/02/08 11:04:18;;;;;;;13.07;2.97;;;5.50;99.90;;;;;;5139829;27;20035;-63
2024/02/08 11:07:06;;;;;;;12.95;3.47;;;5.50;99.90;;;;;;5138191;27;20045;-63
2024/02/08 11:09:35;;;;;;;15.73;3.42;;;5.50;99.90;;;;;;5138474;27;20034;-63
2024/02/08 11:12:14;;;;;;;12.65;3.00;;;5.50;99.90;;;;;;5116221;27;20543;-63
2024/02/08 11:14:53;;;;;;;19.10;3.78;;;5.50;99.90;;;;;;5137581;27;20038;-62
2024/02/08 11:17:25;;;;;;;14.00;2.87;;;5.50;99.90;;;;;;5121600;27;20070;-63
2024/02/08 11:19:56;;;;;;;18.25;3.30;;;5.50;99.90;;;;;;5135959;27;20034;-63
2024/02/08 11:22:34;;;;;;;15.68;4.05;;;5.50;99.90;;;;;;5140172;27;20038;-63
2024/02/08 11:25:18;;;;;;;26.08;4.20;;;5.60;99.90;;;;;;5141747;27;20518;-63
2024/02/08 11:27:47;;;;;;;14.40;3.50;;;5.60;99.90;;;;;;5139901;27;20511;-63
2024/02/08 11:30:19;;;;;;;;;;;5.60;99.90;;;;;;5142921;27;20038;-63
2024/02/08 11:33:01;;;;;;;13.15;2.92;;;5.60;99.90;;;;;;5142291;27;19919;-63
2024/02/08 11:35:35;;;;;;;11.98;3.15;;;5.60;99.90;;;;;;5141003;27;20035;-63
2024/02/08 11:38:16;;;;;;;17.17;2.70;;;5.50;99.90;;;;;;5141719;27;20073;-63
2024/02/08 11:40:46;;;;;;;11.30;2.15;;;5.50;99.90;;;;;;5139987;27;20504;-63
2024/02/08 11:43:24;;;;;;;11.18;2.08;;;5.50;99.90;;;;;;5141948;27;20035;-63
2024/02/08 11:45:54;;;;;;;10.85;2.40;;;5.50;99.90;;;;;;5136613;27;20031;-63
2024/02/08 11:48:41;;;;;;;17.33;2.40;;;5.50;99.90;;;;;;5141088;27;20037;-63
2024/02/08 11:51:12;;;;;;;15.55;2.40;;;5.50;99.90;;;;;;5140542;27;20054;-63
2024/02/08 11:53:40;;;;;;;13.45;2.97;;;5.40;99.90;;;;;;5142488;27;20408;-62
2024/02/08 11:56:10;;;;;;;10.88;2.42;;;5.40;99.90;;;;;;5141567;27;20062;-63
2024/02/08 11:58:44;;;;;;;13.57;2.92;;;5.30;99.90;;;;;;5122706;27;20074;-63
2024/02/08 12:01:14;;;;;;;18.80;3.55;;;5.20;99.90;;;;;;5141180;27;20039;-63
2024/02/08 12:03:41;;;;;;;14.85;4.78;;;5.20;99.90;;;;;;5143082;27;20042;-63
2024/02/08 12:06:22;;;;;;;17.88;3.70;;;5.20;99.90;;;;;;5139671;27;20047;-63
2024/02/08 12:09:04;;;;;;;19.50;4.43;;;5.10;99.90;;;;;;5139956;27;20675;-63
2024/02/08 12:11:31;;;;;;;12.95;3.53;;;5.10;99.90;;;;;;5141345;27;20044;-63
2024/02/08 12:13:58;;;;;;;15.30;3.83;;;5.10;99.90;;;;;;5141857;27;20398;-63
2024/02/08 12:16:26;;;;;;;15.07;3.75;;;5.10;99.90;;;;;;5122250;27;20434;-63
2024/02/08 12:18:56;;;;;;;21.58;4.10;;;5.10;99.90;;;;;;5136082;27;20050;-63
2024/02/08 12:21:23;;;;;;;19.42;3.83;;;5.20;99.90;;;;;;5139736;27;20042;-63
2024/02/08 12:23:57;;;;;;;20.98;3.95;;;5.10;99.90;;;;;;5137646;27;20086;-63
2024/02/08 12:26:26;;;;;;;13.40;2.80;;;5.10;99.90;;;;;;5140165;27;20070;-63
2024/02/08 12:28:57;;;;;;;18.08;3.38;;;5.20;99.90;;;;;;5138804;27;20581;-63
2024/02/08 12:31:29;;;;;;;8.60;3.20;;;5.10;99.90;;;;;;5140068;27;20570;-62
2024/02/08 12:33:58;;;;;;;12.60;3.55;;;5.20;99.90;;;;;;5140695;27;20042;-62
2024/02/08 12:36:28;;;;;;;19.45;3.80;;;5.20;99.90;;;;;;5138354;27;20502;-62
2024/02/08 12:38:56;;;;;;;21.52;4.07;;;5.20;99.90;;;;;;5136989;27;20107;-62
2024/02/08 12:41:22;;;;;;;22.58;5.15;;;5.20;99.90;;;;;;5139507;27;20080;-61
2024/02/08 12:43:53;;;;;;;18.85;3.65;;;5.20;99.90;;;;;;5141856;27;20054;-62
2024/02/08 12:46:22;;;;;;;16.10;3.53;;;5.20;99.90;;;;;;5138140;27;20046;-62
2024/02/08 12:48:48;;;;;;;;;;;5.30;99.90;;;;;;5141740;27;20034;-62
2024/02/08 12:51:19;;;;;;;19.65;3.42;;;5.30;99.90;;;;;;5137275;27;20393;-62
2024/02/08 12:54:04;;;;;;;13.48;3.33;;;5.30;99.90;;;;;;5139229;27;20043;-62
2024/02/08 12:56:30;;;;;;;20.38;3.53;;;5.30;99.90;;;;;;5140481;27;20058;-62
2024/02/08 12:59:00;;;;;;;18.35;3.75;;;5.30;99.90;;;;;;5121896;27;20679;-62
2024/02/08 13:01:44;;;;;;;14.32;3.75;;;5.30;99.90;;;;;;5141054;27;20046;-62
2024/02/08 13:04:16;;;;;;;12.35;2.90;;;5.30;99.90;;;;;;5140104;27;20034;-62
2024/02/08 13:06:42;;;;;;;12.50;3.20;;;5.30;99.90;;;;;;5141469;27;20039;-62
2024/02/08 13:09:25;;;;;;;14.82;4.15;;;5.30;99.90;;;;;;5140069;27;20061;-62
2024/02/08 13:12:14;;;;;;;18.67;4.35;;;5.30;99.90;;;;;;5140830;27;20497;-62
2024/02/08 13:15:05;;;;;;;13.50;3.53;;;5.30;99.90;;;;;;5142532;27;20038;-62
2024/02/08 13:17:35;;;;;;;15.13;3.38;;;5.30;99.90;;;;;;5139798;27;20039;-62
2024/02/08 13:20:11;;;;;;;14.32;2.80;;;5.40;99.90;;;;;;5141179;27;20035;-62
2024/02/08 13:22:38;;;;;;;13.60;3.35;;;5.40;99.90;;;;;;5141074;27;20039;-62
2024/02/08 13:25:12;;;;;;;16.33;3.25;;;5.30;99.90;;;;;;5138997;27;20042;-62
2024/02/08 13:27:39;;;;;;;13.02;3.60;;;5.30;99.90;;;;;;5140360;27;20049;-62
2024/02/08 13:30:15;;;;;;;12.68;3.63;;;5.30;99.90;;;;;;5140644;27;20043;-62
2024/02/08 13:32:43;;;;;;;18.27;3.63;;;5.30;99.90;;;;;;5091955;27;20058;-62
2024/02/08 13:35:09;;;;;;;15.25;3.30;;;5.20;99.90;;;;;;5141467;27;20042;-62
2024/02/08 13:37:37;;;;;;;15.48;3.95;;;5.20;99.90;;;;;;5142642;27;20570;-62
2024/02/08 13:40:03;;;;;;;17.38;3.97;;;5.20;99.90;;;;;;5138967;27;20153;-62
2024/02/08 13:42:29;;;;;;;10.70;2.90;;;5.30;99.90;;;;;;5139818;27;20049;-62
2024/02/08 13:44:58;;;;;;;22.58;3.88;;;5.20;99.90;;;;;;5138623;27;20031;-62
2024/02/08 13:47:31;;;;;;;13.52;2.90;;;5.20;99.90;;;;;;5140907;27;20043;-61
2024/02/08 13:49:59;;;;;;;14.82;2.88;;;5.10;99.90;;;;;;5141842;27;20039;-62
2024/02/08 13:52:25;;;;;;;10.57;1.85;;;5.00;99.90;;;;;;5141265;27;20053;-62
2024/02/08 13:54:54;;;;;;;6.65;1.70;;;4.90;99.90;;;;;;5140614;27;20118;-62
2024/02/08 13:57:21;;;;;;;;;;;4.70;99.90;;;;;;5143209;27;20498;-62
2024/02/08 13:59:48;;;;;;;12.15;1.73;;;4.70;99.90;;;;;;5140214;27;19919;-62
2024/02/08 14:02:18;;;;;;;9.23;1.98;;;4.60;99.90;;;;;;5140225;27;20047;-62
2024/02/08 14:04:51;;;;;;;11.13;1.95;;;4.60;99.90;;;;;;5139246;27;20122;-62
2024/02/08 14:07:18;;;;;;;8.88;1.88;;;4.50;99.90;;;;;;5140559;27;20034;-62
2024/02/08 14:09:45;;;;;;;5.57;1.33;;;4.50;99.90;;;;;;5139738;27;20087;-62
2024/02/08 14:12:11;;;;;;;5.97;1.17;;;4.30;99.90;;;;;;5141737;27;20042;-62
2024/02/08 14:14:41;;;;;;;6.32;1.38;;;4.20;99.90;;;;;;5140536;27;20046;-62
2024/02/08 14:17:10;;;;;;;11.15;1.40;;;4.20;99.90;;;;;;5141423;27;20576;-62
2024/02/08 14:19:37;;;;;;;3.42;1.30;;;4.10;99.90;;;;;;5140074;27;20168;-62
2024/02/08 14:22:06;;;;;;;7.03;1.55;;;4.00;99.90;;;;;;5139310;27;20058;-62
2024/02/08 14:24:36;;;;;;;;;;;4.00;99.90;;;;;;5140094;27;20081;-62
2024/02/08 14:27:06;;;;;;;5.43;1.30;;;3.90;99.90;;;;;;5140450;27;20009;-61
2024/02/08 14:29:35;;;;;;;5.85;1.42;;;3.80;99.90;;;;;;5144332;27;20440;-62
2024/02/08 14:32:08;;;;;;;6.70;2.05;;;3.70;99.90;;;;;;5144233;27;20042;-62
2024/02/08 14:34:39;;;;;;;6.93;1.80;;;3.70;99.90;;;;;;5143755;27;20045;-62
2024/02/08 14:37:08;;;;;;;4.80;1.42;;;3.70;99.90;;;;;;5141586;27;20038;-62
2024/02/08 14:39:35;;;;;;;8.60;1.73;;;3.70;99.90;;;;;;5143138;27;20441;-63
2024/02/08 14:42:12;;;;;;;4.63;1.13;;;3.60;99.90;;;;;;5143921;27;20612;-62
2024/02/08 14:44:44;;;;;;;6.40;1.20;;;3.50;99.90;;;;;;5107108;27;20434;-62
2024/02/08 14:47:25;;;;;;;2.47;1.00;;;3.40;99.90;;;;;;5126478;27;20054;-62
2024/02/08 14:49:55;;;;;;;5.68;1.50;;;3.40;99.90;;;;;;5143875;27;20595;-62
2024/02/08 14:52:43;;;;;;;2.03;0.90;;;3.30;99.90;;;;;;5143655;27;20181;-62
2024/02/08 14:55:10;;;;;;;8.80;1.48;;;3.30;99.90;;;;;;5143084;27;20045;-62
2024/02/08 14:57:42;;;;;;;4.65;1.40;;;3.30;99.90;;;;;;5144010;27;20074;-62
2024/02/08 15:03:08;;;;;;;8.32;1.85;;;3.20;99.90;;;;;;5144813;27;20039;-62
2024/02/08 15:06:31;;;;;;;6.95;1.30;;;3.10;99.90;;;;;;5142652;27;20050;-62
2024/02/08 15:11:02;;;;;;;2.88;0.93;;;2.90;99.90;;;;;;5144063;27;20039;-62
2024/02/08 15:13:38;;;;;;;5.07;1.10;;;2.90;99.90;;;;;;5142613;27;20046;-62
2024/02/08 15:16:07;;;;;;;5.75;0.82;;;2.90;99.90;;;;;;5140228;27;20035;-62
2024/02/08 15:18:39;;;;;;;3.00;0.88;;;2.80;99.90;;;;;;5142251;27;20346;-62
2024/02/08 15:21:06;;;;;;;2.42;0.88;;;2.80;99.90;;;;;;5142715;27;20049;-62
2024/02/08 15:23:47;;;;;;;3.85;1.00;;;2.80;99.90;;;;;;5143454;27;20652;-62
2024/02/08 15:26:14;;;;;;;3.13;1.20;;;2.70;99.90;;;;;;5143927;27;20039;-63
2024/02/08 15:28:45;;;;;;;4.70;1.40;;;2.20;99.90;;;;;;5143727;27;20087;-62
2024/02/08 15:31:15;;;;;;;5.97;1.58;;;2.60;99.90;;;;;;5143678;27;20039;-63
2024/02/08 15:36:32;;;;;;;12.75;3.75;;;2.70;99.90;;;;;;5142792;27;20529;-63
2024/02/08 15:39:26;;;;;;;6.10;3.33;;;2.50;99.90;;;;;;5142028;27;20035;-63
2024/02/08 15:41:52;;;;;;;10.30;4.93;;;2.50;99.90;;;;;;5143046;27;20043;-64